Cedar Park, Texas
Current Conditions -  °F | °C
As of 10:35 PM on Saturday 20 Dec 2014 (Local Time) from KRYW Reporting Station
Haze Haze  
Wind Chill: 46°   Ceiling: 2000
Heat Index: 48°   Visibility: 4mi
Dew Point: 46°   Wind: 5mph
Humidity: 92%   Direction: 80°E
Pressure: 30.16"   Gusts: NA
Location:  30.51°N, 97.82°W
Report Text: KRYW 210435Z AUTO 08004KT 4SM BR OVC020 09/08 A3016 RMK AO2 T00900078
Loading
Personal Weather Stations






























Interactive Weather Map New forecast layout! Learn more

10-Day Weather Forecast

Advertisements
Track Severe Weather on mobile